ホーチミン の空港の天気 - METARとTAF

タンソンニャット国際空港 (ホーチミン) ( VVTS / SGN ) - ベトナム ホーチミン市
飛行場実況気象(Metar)
観測時間10/21 22:30 ICT (10/21 15:30 UTC)
風向・風速西北西 1m/s
視程10km以上
天気現象
全天の4割程度の雲 雲底高度 460m
全天の4割程度の雲 雲底高度 1520m
気温27℃
湿度89%
気圧1007hPa
METARVVTS 211530Z 29001KT 9999 SCT015 SCT050 27/25 Q1007 NOSIG
過去の天気等 Google飛行場航空写真 Wunderground天気予報

過去48時間のMETAR

飛行場予報(TAF)
発表時間: 10/21 18:00 ICT (10/21 11:00 UTC)
予報対象時間: 21日19時 ICT ~ 23日1時 ICT
風向・風速北北東 3m/s
視程10km以上
全天の4割程度の雲 雲底高度 460m
全天の4割程度の雲 雲底高度 1220m
22日13時 ICT ~ 22日18時 ICT に一時的に
視程3000m
天気現象雷雨
全天の8割程度の雲 雲底高度 400m
少しの積乱雲 雲底高度 460m
TAF VVTS 211100Z 2112/2218 03006KT 9999 SCT015 SCT040
TEMPO 2206/2211 3000 TSRA BKN013 FEW015CB